sensor_id;sensor_type;location;lat;lon;timestamp;temperature;humidity
65707;SHT31;52423;43.512;5.220;2024-01-07T00:00:12;7.04;66.84
65707;SHT31;52423;43.512;5.220;2024-01-07T00:02:38;7.04;66.74
65707;SHT31;52423;43.512;5.220;2024-01-07T00:05:04;7.04;66.31
65707;SHT31;52423;43.512;5.220;2024-01-07T00:07:29;7.04;66.47
65707;SHT31;52423;43.512;5.220;2024-01-07T00:09:54;7.07;66.35
65707;SHT31;52423;43.512;5.220;2024-01-07T00:12:20;7.04;66.34
65707;SHT31;52423;43.512;5.220;2024-01-07T00:14:45;7.02;66.35
65707;SHT31;52423;43.512;5.220;2024-01-07T00:17:11;7.04;66.44
65707;SHT31;52423;43.512;5.220;2024-01-07T00:19:36;7.02;66.04
65707;SHT31;52423;43.512;5.220;2024-01-07T00:22:03;7.04;66.27
65707;SHT31;52423;43.512;5.220;2024-01-07T00:24:28;7.07;66.07
65707;SHT31;52423;43.512;5.220;2024-01-07T00:26:54;7.01;66.23
65707;SHT31;52423;43.512;5.220;2024-01-07T00:29:20;7.04;66.09
65707;SHT31;52423;43.512;5.220;2024-01-07T00:31:46;7.01;66.18
65707;SHT31;52423;43.512;5.220;2024-01-07T00:34:11;7.02;66.23
65707;SHT31;52423;43.512;5.220;2024-01-07T00:36:36;7.04;66.26
65707;SHT31;52423;43.512;5.220;2024-01-07T00:39:02;6.98;67.19
65707;SHT31;52423;43.512;5.220;2024-01-07T00:41:27;7.01;66.37
65707;SHT31;52423;43.512;5.220;2024-01-07T00:43:53;7.01;66.87
65707;SHT31;52423;43.512;5.220;2024-01-07T00:46:18;6.99;66.77
65707;SHT31;52423;43.512;5.220;2024-01-07T00:48:43;6.97;66.81
65707;SHT31;52423;43.512;5.220;2024-01-07T00:51:09;6.98;66.64
65707;SHT31;52423;43.512;5.220;2024-01-07T00:53:34;7.01;66.42
65707;SHT31;52423;43.512;5.220;2024-01-07T00:56:00;6.99;66.52
65707;SHT31;52423;43.512;5.220;2024-01-07T00:58:25;6.97;66.59
65707;SHT31;52423;43.512;5.220;2024-01-07T01:00:50;6.98;66.77
65707;SHT31;52423;43.512;5.220;2024-01-07T01:03:19;7.01;66.70
65707;SHT31;52423;43.512;5.220;2024-01-07T01:05:44;7.01;66.70
65707;SHT31;52423;43.512;5.220;2024-01-07T01:08:10;7.02;66.54
65707;SHT31;52423;43.512;5.220;2024-01-07T01:10:35;7.01;66.83
65707;SHT31;52423;43.512;5.220;2024-01-07T01:13:00;6.99;66.74
65707;SHT31;52423;43.512;5.220;2024-01-07T01:15:26;6.98;66.76
65707;SHT31;52423;43.512;5.220;2024-01-07T01:17:51;7.01;66.71
65707;SHT31;52423;43.512;5.220;2024-01-07T01:20:16;6.98;66.90
65707;SHT31;52423;43.512;5.220;2024-01-07T01:22:42;6.97;66.87
65707;SHT31;52423;43.512;5.220;2024-01-07T01:25:07;6.95;66.92
65707;SHT31;52423;43.512;5.220;2024-01-07T01:27:33;6.99;66.62
65707;SHT31;52423;43.512;5.220;2024-01-07T01:29:58;6.98;66.66
65707;SHT31;52423;43.512;5.220;2024-01-07T01:32:24;6.97;66.61
65707;SHT31;52423;43.512;5.220;2024-01-07T01:34:49;6.98;66.63
65707;SHT31;52423;43.512;5.220;2024-01-07T01:37:14;6.98;66.65
65707;SHT31;52423;43.512;5.220;2024-01-07T01:39:40;6.98;66.54
65707;SHT31;52423;43.512;5.220;2024-01-07T01:42:06;6.95;66.92
65707;SHT31;52423;43.512;5.220;2024-01-07T01:44:32;6.98;66.67
65707;SHT31;52423;43.512;5.220;2024-01-07T01:46:58;6.98;66.81
65707;SHT31;52423;43.512;5.220;2024-01-07T01:49:25;6.95;66.54
65707;SHT31;52423;43.512;5.220;2024-01-07T01:51:51;6.95;66.90
65707;SHT31;52423;43.512;5.220;2024-01-07T01:54:18;7.01;66.78
65707;SHT31;52423;43.512;5.220;2024-01-07T01:56:44;7.02;66.52
65707;SHT31;52423;43.512;5.220;2024-01-07T01:59:10;7.02;66.74
65707;SHT31;52423;43.512;5.220;2024-01-07T02:01:36;7.02;66.72
65707;SHT31;52423;43.512;5.220;2024-01-07T02:04:02;6.99;66.74
65707;SHT31;52423;43.512;5.220;2024-01-07T02:06:27;6.99;66.76
65707;SHT31;52423;43.512;5.220;2024-01-07T02:08:53;6.99;67.06
65707;SHT31;52423;43.512;5.220;2024-01-07T02:11:20;6.99;67.24
65707;SHT31;52423;43.512;5.220;2024-01-07T02:13:46;7.01;67.21
65707;SHT31;52423;43.512;5.220;2024-01-07T02:16:11;7.01;67.25
65707;SHT31;52423;43.512;5.220;2024-01-07T02:18:41;6.98;67.67
65707;SHT31;52423;43.512;5.220;2024-01-07T02:21:08;6.97;67.68
65707;SHT31;52423;43.512;5.220;2024-01-07T02:23:34;6.94;67.70
65707;SHT31;52423;43.512;5.220;2024-01-07T02:26:00;6.94;67.92
65707;SHT31;52423;43.512;5.220;2024-01-07T02:28:25;6.90;68.17
65707;SHT31;52423;43.512;5.220;2024-01-07T02:30:50;6.88;68.04
65707;SHT31;52423;43.512;5.220;2024-01-07T02:33:16;6.88;68.31
65707;SHT31;52423;43.512;5.220;2024-01-07T02:35:41;6.90;67.98
65707;SHT31;52423;43.512;5.220;2024-01-07T02:38:07;6.87;68.01
65707;SHT31;52423;43.512;5.220;2024-01-07T02:40:32;6.85;68.20
65707;SHT31;52423;43.512;5.220;2024-01-07T02:42:57;6.88;68.22
65707;SHT31;52423;43.512;5.220;2024-01-07T02:45:23;6.83;68.67
65707;SHT31;52423;43.512;5.220;2024-01-07T02:47:49;6.81;68.98
65707;SHT31;52423;43.512;5.220;2024-01-07T02:50:14;6.81;69.05
65707;SHT31;52423;43.512;5.220;2024-01-07T02:52:41;6.80;69.28
65707;SHT31;52423;43.512;5.220;2024-01-07T02:55:07;6.80;69.22
65707;SHT31;52423;43.512;5.220;2024-01-07T02:57:32;6.80;69.27
65707;SHT31;52423;43.512;5.220;2024-01-07T02:59:58;6.76;69.40
65707;SHT31;52423;43.512;5.220;2024-01-07T03:02:23;6.78;69.29
65707;SHT31;52423;43.512;5.220;2024-01-07T03:04:49;6.76;69.29
65707;SHT31;52423;43.512;5.220;2024-01-07T03:07:14;6.74;69.33
65707;SHT31;52423;43.512;5.220;2024-01-07T03:09:39;6.71;69.43
65707;SHT31;52423;43.512;5.220;2024-01-07T03:12:05;6.71;69.40
65707;SHT31;52423;43.512;5.220;2024-01-07T03:14:30;6.76;69.46
65707;SHT31;52423;43.512;5.220;2024-01-07T03:16:56;6.70;69.57
65707;SHT31;52423;43.512;5.220;2024-01-07T03:19:21;6.67;69.73
65707;SHT31;52423;43.512;5.220;2024-01-07T03:21:48;6.68;69.59
65707;SHT31;52423;43.512;5.220;2024-01-07T03:24:14;6.67;69.46
65707;SHT31;52423;43.512;5.220;2024-01-07T03:26:39;6.64;69.85
65707;SHT31;52423;43.512;5.220;2024-01-07T03:29:04;6.64;69.92
65707;SHT31;52423;43.512;5.220;2024-01-07T03:31:30;6.64;69.98
65707;SHT31;52423;43.512;5.220;2024-01-07T03:33:55;6.63;69.89
65707;SHT31;52423;43.512;5.220;2024-01-07T03:36:21;6.66;69.77
65707;SHT31;52423;43.512;5.220;2024-01-07T03:38:47;6.68;70.13
65707;SHT31;52423;43.512;5.220;2024-01-07T03:41:19;6.66;70.13
65707;SHT31;52423;43.512;5.220;2024-01-07T03:43:48;6.66;70.36
65707;SHT31;52423;43.512;5.220;2024-01-07T03:46:15;6.67;70.74
65707;SHT31;52423;43.512;5.220;2024-01-07T03:48:41;6.66;70.60
65707;SHT31;52423;43.512;5.220;2024-01-07T03:51:07;6.66;70.71
65707;SHT31;52423;43.512;5.220;2024-01-07T03:53:33;6.64;71.00
65707;SHT31;52423;43.512;5.220;2024-01-07T03:55:58;6.66;71.00
65707;SHT31;52423;43.512;5.220;2024-01-07T03:58:23;6.63;71.29
65707;SHT31;52423;43.512;5.220;2024-01-07T04:00:49;6.64;71.23
65707;SHT31;52423;43.512;5.220;2024-01-07T04:03:14;6.66;71.14
65707;SHT31;52423;43.512;5.220;2024-01-07T04:05:40;6.66;70.88
65707;SHT31;52423;43.512;5.220;2024-01-07T04:08:05;6.66;70.97
65707;SHT31;52423;43.512;5.220;2024-01-07T04:10:31;6.68;70.82
65707;SHT31;52423;43.512;5.220;2024-01-07T04:12:56;6.67;70.80
65707;SHT31;52423;43.512;5.220;2024-01-07T04:15:24;6.64;71.25
65707;SHT31;52423;43.512;5.220;2024-01-07T04:17:49;6.71;70.53
65707;SHT31;52423;43.512;5.220;2024-01-07T04:20:15;6.67;70.54
65707;SHT31;52423;43.512;5.220;2024-01-07T04:22:40;6.70;70.42
65707;SHT31;52423;43.512;5.220;2024-01-07T04:25:06;6.73;70.49
65707;SHT31;52423;43.512;5.220;2024-01-07T04:27:37;6.73;70.32
65707;SHT31;52423;43.512;5.220;2024-01-07T04:30:04;6.70;70.38
65707;SHT31;52423;43.512;5.220;2024-01-07T04:32:29;6.73;70.35
65707;SHT31;52423;43.512;5.220;2024-01-07T04:34:55;6.74;70.44
65707;SHT31;52423;43.512;5.220;2024-01-07T04:37:22;6.77;70.36
65707;SHT31;52423;43.512;5.220;2024-01-07T04:39:47;6.77;70.21
65707;SHT31;52423;43.512;5.220;2024-01-07T04:42:13;6.80;70.32
65707;SHT31;52423;43.512;5.220;2024-01-07T04:44:38;6.81;70.64
65707;SHT31;52423;43.512;5.220;2024-01-07T04:47:04;6.85;70.34
65707;SHT31;52423;43.512;5.220;2024-01-07T04:49:29;6.83;70.44
65707;SHT31;52423;43.512;5.220;2024-01-07T04:51:54;6.83;70.27
65707;SHT31;52423;43.512;5.220;2024-01-07T04:54:20;6.85;70.13
65707;SHT31;52423;43.512;5.220;2024-01-07T04:56:45;6.84;70.36
65707;SHT31;52423;43.512;5.220;2024-01-07T04:59:11;6.81;70.53
65707;SHT31;52423;43.512;5.220;2024-01-07T05:01:36;6.85;70.31
65707;SHT31;52423;43.512;5.220;2024-01-07T05:04:02;6.84;70.43
65707;SHT31;52423;43.512;5.220;2024-01-07T05:06:27;6.90;70.05
65707;SHT31;52423;43.512;5.220;2024-01-07T05:08:53;6.90;70.02
65707;SHT31;52423;43.512;5.220;2024-01-07T05:11:18;6.91;69.84
65707;SHT31;52423;43.512;5.220;2024-01-07T05:13:43;6.95;70.03
65707;SHT31;52423;43.512;5.220;2024-01-07T05:16:09;6.92;69.89
65707;SHT31;52423;43.512;5.220;2024-01-07T05:18:42;6.94;70.08
65707;SHT31;52423;43.512;5.220;2024-01-07T05:21:13;6.97;70.10
65707;SHT31;52423;43.512;5.220;2024-01-07T05:23:39;6.97;69.95
65707;SHT31;52423;43.512;5.220;2024-01-07T05:26:05;6.94;70.23
65707;SHT31;52423;43.512;5.220;2024-01-07T05:28:30;6.94;70.25
65707;SHT31;52423;43.512;5.220;2024-01-07T05:30:55;6.92;70.27
65707;SHT31;52423;43.512;5.220;2024-01-07T05:33:21;6.98;70.19
65707;SHT31;52423;43.512;5.220;2024-01-07T05:35:47;7.01;70.01
65707;SHT31;52423;43.512;5.220;2024-01-07T05:38:12;6.98;70.08
65707;SHT31;52423;43.512;5.220;2024-01-07T05:40:37;6.97;69.93
65707;SHT31;52423;43.512;5.220;2024-01-07T05:43:03;6.99;69.76
65707;SHT31;52423;43.512;5.220;2024-01-07T05:45:28;6.99;69.84
65707;SHT31;52423;43.512;5.220;2024-01-07T05:47:54;7.01;69.90
65707;SHT31;52423;43.512;5.220;2024-01-07T05:50:19;7.01;69.87
65707;SHT31;52423;43.512;5.220;2024-01-07T05:52:45;7.01;69.79
65707;SHT31;52423;43.512;5.220;2024-01-07T05:55:11;7.02;69.85
65707;SHT31;52423;43.512;5.220;2024-01-07T05:57:36;7.05;69.43
65707;SHT31;52423;43.512;5.220;2024-01-07T06:00:02;7.04;69.52
65707;SHT31;52423;43.512;5.220;2024-01-07T06:02:28;7.08;69.15
65707;SHT31;52423;43.512;5.220;2024-01-07T06:04:53;7.07;69.14
65707;SHT31;52423;43.512;5.220;2024-01-07T06:07:18;7.02;69.34
65707;SHT31;52423;43.512;5.220;2024-01-07T06:09:44;7.02;69.03
65707;SHT31;52423;43.512;5.220;2024-01-07T06:12:09;7.04;68.85
65707;SHT31;52423;43.512;5.220;2024-01-07T06:14:34;7.04;68.94
65707;SHT31;52423;43.512;5.220;2024-01-07T06:17:00;7.04;68.83
65707;SHT31;52423;43.512;5.220;2024-01-07T06:19:26;7.07;68.97
65707;SHT31;52423;43.512;5.220;2024-01-07T06:21:51;7.07;68.49
65707;SHT31;52423;43.512;5.220;2024-01-07T06:24:16;7.04;68.85
65707;SHT31;52423;43.512;5.220;2024-01-07T06:26:42;7.01;68.64
65707;SHT31;52423;43.512;5.220;2024-01-07T06:29:07;7.01;68.51
65707;SHT31;52423;43.512;5.220;2024-01-07T06:31:34;6.99;68.66
65707;SHT31;52423;43.512;5.220;2024-01-07T06:34:00;6.97;68.92
65707;SHT31;52423;43.512;5.220;2024-01-07T06:36:26;6.94;68.71
65707;SHT31;52423;43.512;5.220;2024-01-07T06:38:51;6.97;68.66
65707;SHT31;52423;43.512;5.220;2024-01-07T06:41:16;6.97;68.61
65707;SHT31;52423;43.512;5.220;2024-01-07T06:43:42;6.92;68.68
65707;SHT31;52423;43.512;5.220;2024-01-07T06:46:07;6.92;68.87
65707;SHT31;52423;43.512;5.220;2024-01-07T06:48:33;6.94;69.04
65707;SHT31;52423;43.512;5.220;2024-01-07T06:50:58;6.85;69.10
65707;SHT31;52423;43.512;5.220;2024-01-07T06:53:24;6.85;68.96
65707;SHT31;52423;43.512;5.220;2024-01-07T06:55:49;6.85;69.05
65707;SHT31;52423;43.512;5.220;2024-01-07T06:58:15;6.84;69.31
65707;SHT31;52423;43.512;5.220;2024-01-07T07:00:40;6.83;69.27
65707;SHT31;52423;43.512;5.220;2024-01-07T07:03:06;6.84;68.79
65707;SHT31;52423;43.512;5.220;2024-01-07T07:05:32;6.85;68.55
65707;SHT31;52423;43.512;5.220;2024-01-07T07:07:57;6.84;68.84
65707;SHT31;52423;43.512;5.220;2024-01-07T07:10:23;6.84;68.88
65707;SHT31;52423;43.512;5.220;2024-01-07T07:12:48;6.80;68.64
65707;SHT31;52423;43.512;5.220;2024-01-07T07:15:16;6.80;68.64
65707;SHT31;52423;43.512;5.220;2024-01-07T07:17:41;6.77;68.64
65707;SHT31;52423;43.512;5.220;2024-01-07T07:20:07;6.78;68.78
65707;SHT31;52423;43.512;5.220;2024-01-07T07:22:33;6.80;68.50
65707;SHT31;52423;43.512;5.220;2024-01-07T07:24:58;6.74;69.12
65707;SHT31;52423;43.512;5.220;2024-01-07T07:27:24;6.74;68.65
65707;SHT31;52423;43.512;5.220;2024-01-07T07:29:49;6.73;68.84
65707;SHT31;52423;43.512;5.220;2024-01-07T07:32:14;6.70;68.59
65707;SHT31;52423;43.512;5.220;2024-01-07T07:34:40;6.71;68.57
65707;SHT31;52423;43.512;5.220;2024-01-07T07:37:05;6.70;68.41
65707;SHT31;52423;43.512;5.220;2024-01-07T07:39:31;6.68;68.51
65707;SHT31;52423;43.512;5.220;2024-01-07T07:41:56;6.70;68.28
65707;SHT31;52423;43.512;5.220;2024-01-07T07:44:21;6.73;68.01
65707;SHT31;52423;43.512;5.220;2024-01-07T07:46:47;6.70;68.00
65707;SHT31;52423;43.512;5.220;2024-01-07T07:49:12;6.71;67.87
65707;SHT31;52423;43.512;5.220;2024-01-07T07:51:38;6.71;68.19
65707;SHT31;52423;43.512;5.220;2024-01-07T07:54:04;6.73;67.64
65707;SHT31;52423;43.512;5.220;2024-01-07T07:56:29;6.78;67.76
65707;SHT31;52423;43.512;5.220;2024-01-07T07:58:54;6.80;67.41
65707;SHT31;52423;43.512;5.220;2024-01-07T08:01:20;6.88;66.67
65707;SHT31;52423;43.512;5.220;2024-01-07T08:03:45;6.88;66.86
65707;SHT31;52423;43.512;5.220;2024-01-07T08:06:11;6.92;66.19
65707;SHT31;52423;43.512;5.220;2024-01-07T08:08:36;6.92;66.38
65707;SHT31;52423;43.512;5.220;2024-01-07T08:11:02;6.94;66.11
65707;SHT31;52423;43.512;5.220;2024-01-07T08:13:27;6.98;66.27
65707;SHT31;52423;43.512;5.220;2024-01-07T08:15:52;7.01;66.01
65707;SHT31;52423;43.512;5.220;2024-01-07T08:18:18;7.04;65.79
65707;SHT31;52423;43.512;5.220;2024-01-07T08:20:43;7.04;65.82
65707;SHT31;52423;43.512;5.220;2024-01-07T08:23:09;7.01;65.80
65707;SHT31;52423;43.512;5.220;2024-01-07T08:25:35;7.05;66.01
65707;SHT31;52423;43.512;5.220;2024-01-07T08:28:00;7.08;65.93
65707;SHT31;52423;43.512;5.220;2024-01-07T08:30:26;7.11;65.74
65707;SHT31;52423;43.512;5.220;2024-01-07T08:32:51;7.12;66.03
65707;SHT31;52423;43.512;5.220;2024-01-07T08:35:17;7.08;65.71
65707;SHT31;52423;43.512;5.220;2024-01-07T08:37:42;7.08;65.75
65707;SHT31;52423;43.512;5.220;2024-01-07T08:40:08;7.02;66.08
65707;SHT31;52423;43.512;5.220;2024-01-07T08:42:35;7.02;66.52
65707;SHT31;52423;43.512;5.220;2024-01-07T08:45:01;7.04;66.59
65707;SHT31;52423;43.512;5.220;2024-01-07T08:47:26;7.02;66.40
65707;SHT31;52423;43.512;5.220;2024-01-07T08:49:51;6.99;66.04
65707;SHT31;52423;43.512;5.220;2024-01-07T08:52:19;6.95;66.33
65707;SHT31;52423;43.512;5.220;2024-01-07T08:54:44;6.94;66.45
65707;SHT31;52423;43.512;5.220;2024-01-07T08:57:10;6.92;66.17
65707;SHT31;52423;43.512;5.220;2024-01-07T08:59:35;6.92;66.08
65707;SHT31;52423;43.512;5.220;2024-01-07T09:02:01;6.92;65.80
65707;SHT31;52423;43.512;5.220;2024-01-07T09:04:27;6.91;66.22
65707;SHT31;52423;43.512;5.220;2024-01-07T09:06:53;6.95;65.88
65707;SHT31;52423;43.512;5.220;2024-01-07T09:09:18;6.94;65.99
65707;SHT31;52423;43.512;5.220;2024-01-07T09:11:44;6.92;66.36
65707;SHT31;52423;43.512;5.220;2024-01-07T09:14:09;6.97;65.76
65707;SHT31;52423;43.512;5.220;2024-01-07T09:16:34;7.01;65.62
65707;SHT31;52423;43.512;5.220;2024-01-07T09:19:00;7.04;65.55
65707;SHT31;52423;43.512;5.220;2024-01-07T09:21:25;7.07;65.55
65707;SHT31;52423;43.512;5.220;2024-01-07T09:23:51;7.09;65.61
65707;SHT31;52423;43.512;5.220;2024-01-07T09:26:16;7.11;66.66
65707;SHT31;52423;43.512;5.220;2024-01-07T09:28:42;7.21;65.33
65707;SHT31;52423;43.512;5.220;2024-01-07T09:31:08;7.22;65.91
65707;SHT31;52423;43.512;5.220;2024-01-07T09:33:33;7.32;64.46
65707;SHT31;52423;43.512;5.220;2024-01-07T09:35:59;7.39;65.13
65707;SHT31;52423;43.512;5.220;2024-01-07T09:38:24;7.43;64.34
65707;SHT31;52423;43.512;5.220;2024-01-07T09:40:51;7.46;64.77
65707;SHT31;52423;43.512;5.220;2024-01-07T09:43:18;7.46;64.06
65707;SHT31;52423;43.512;5.220;2024-01-07T09:45:46;7.39;64.62
65707;SHT31;52423;43.512;5.220;2024-01-07T09:48:13;7.39;64.53
65707;SHT31;52423;43.512;5.220;2024-01-07T09:50:38;7.23;65.20
65707;SHT31;52423;43.512;5.220;2024-01-07T09:53:06;7.25;65.23
65707;SHT31;52423;43.512;5.220;2024-01-07T09:55:47;7.28;65.38
65707;SHT31;52423;43.512;5.220;2024-01-07T09:58:17;7.25;64.80
65707;SHT31;52423;43.512;5.220;2024-01-07T10:00:42;7.26;64.25
65707;SHT31;52423;43.512;5.220;2024-01-07T10:03:07;7.22;65.66
65707;SHT31;52423;43.512;5.220;2024-01-07T10:05:33;7.23;65.26
65707;SHT31;52423;43.512;5.220;2024-01-07T10:07:58;7.26;64.77
65707;SHT31;52423;43.512;5.220;2024-01-07T10:10:24;7.23;64.83
65707;SHT31;52423;43.512;5.220;2024-01-07T10:12:49;7.29;64.66
65707;SHT31;52423;43.512;5.220;2024-01-07T10:15:18;7.32;65.52
65707;SHT31;52423;43.512;5.220;2024-01-07T10:17:44;7.39;64.77
65707;SHT31;52423;43.512;5.220;2024-01-07T10:20:11;7.46;64.49
65707;SHT31;52423;43.512;5.220;2024-01-07T10:22:37;7.52;64.36
65707;SHT31;52423;43.512;5.220;2024-01-07T10:25:06;7.58;64.34
65707;SHT31;52423;43.512;5.220;2024-01-07T10:27:37;7.67;64.16
65707;SHT31;52423;43.512;5.220;2024-01-07T10:30:03;7.71;63.47
65707;SHT31;52423;43.512;5.220;2024-01-07T10:32:29;7.79;63.20
65707;SHT31;52423;43.512;5.220;2024-01-07T10:35:03;7.71;62.83
65707;SHT31;52423;43.512;5.220;2024-01-07T10:37:29;7.71;63.61
65707;SHT31;52423;43.512;5.220;2024-01-07T10:39:57;7.73;64.78
65707;SHT31;52423;43.512;5.220;2024-01-07T10:42:26;7.81;63.12
65707;SHT31;52423;43.512;5.220;2024-01-07T10:44:52;7.86;63.25
65707;SHT31;52423;43.512;5.220;2024-01-07T10:47:19;7.89;62.91
65707;SHT31;52423;43.512;5.220;2024-01-07T10:49:47;7.94;63.22
65707;SHT31;52423;43.512;5.220;2024-01-07T10:52:15;8.01;62.30
65707;SHT31;52423;43.512;5.220;2024-01-07T10:54:42;8.05;63.67
65707;SHT31;52423;43.512;5.220;2024-01-07T10:57:21;8.11;62.98
65707;SHT31;52423;43.512;5.220;2024-01-07T10:59:50;8.21;61.71
65707;SHT31;52423;43.512;5.220;2024-01-07T11:02:16;8.15;61.74
65707;SHT31;52423;43.512;5.220;2024-01-07T11:04:47;8.07;62.23
65707;SHT31;52423;43.512;5.220;2024-01-07T11:07:28;8.02;63.74
65707;SHT31;52423;43.512;5.220;2024-01-07T11:12:31;7.97;62.06
65707;SHT31;52423;43.512;5.220;2024-01-07T11:14:56;7.93;62.26
65707;SHT31;52423;43.512;5.220;2024-01-07T11:17:40;7.89;62.04
65707;SHT31;52423;43.512;5.220;2024-01-07T11:20:12;7.93;62.67
65707;SHT31;52423;43.512;5.220;2024-01-07T11:22:38;8.02;62.27
65707;SHT31;52423;43.512;5.220;2024-01-07T11:25:32;8.01;61.89
65707;SHT31;52423;43.512;5.220;2024-01-07T11:27:58;8.02;61.92
65707;SHT31;52423;43.512;5.220;2024-01-07T11:30:25;8.08;62.59
65707;SHT31;52423;43.512;5.220;2024-01-07T11:33:01;8.14;61.56
65707;SHT31;52423;43.512;5.220;2024-01-07T11:35:55;8.12;62.01
65707;SHT31;52423;43.512;5.220;2024-01-07T11:38:23;8.02;61.95
65707;SHT31;52423;43.512;5.220;2024-01-07T11:40:50;8.00;62.02
65707;SHT31;52423;43.512;5.220;2024-01-07T11:43:15;7.97;61.87
65707;SHT31;52423;43.512;5.220;2024-01-07T11:45:41;8.01;61.47
65707;SHT31;52423;43.512;5.220;2024-01-07T11:48:07;8.02;62.17
65707;SHT31;52423;43.512;5.220;2024-01-07T11:50:32;7.95;62.26
65707;SHT31;52423;43.512;5.220;2024-01-07T11:52:58;7.98;61.91
65707;SHT31;52423;43.512;5.220;2024-01-07T11:55:24;7.94;62.08
65707;SHT31;52423;43.512;5.220;2024-01-07T11:57:50;8.00;62.93
65707;SHT31;52423;43.512;5.220;2024-01-07T12:00:17;8.12;61.68
65707;SHT31;52423;43.512;5.220;2024-01-07T12:02:43;8.15;61.29
65707;SHT31;52423;43.512;5.220;2024-01-07T12:05:08;8.20;61.70
65707;SHT31;52423;43.512;5.220;2024-01-07T12:07:34;8.28;61.56
65707;SHT31;52423;43.512;5.220;2024-01-07T12:10:02;8.39;61.48
65707;SHT31;52423;43.512;5.220;2024-01-07T12:12:28;8.51;61.34
65707;SHT31;52423;43.512;5.220;2024-01-07T12:14:53;8.69;60.24
65707;SHT31;52423;43.512;5.220;2024-01-07T12:17:19;8.55;60.32
65707;SHT31;52423;43.512;5.220;2024-01-07T12:19:45;8.52;60.63
65707;SHT31;52423;43.512;5.220;2024-01-07T12:22:10;8.55;60.34
65707;SHT31;52423;43.512;5.220;2024-01-07T12:24:36;8.53;60.22
65707;SHT31;52423;43.512;5.220;2024-01-07T12:27:07;8.49;60.55
65707;SHT31;52423;43.512;5.220;2024-01-07T12:29:33;8.46;60.69
65707;SHT31;52423;43.512;5.220;2024-01-07T12:31:59;8.55;60.61
65707;SHT31;52423;43.512;5.220;2024-01-07T12:34:25;8.66;60.90
65707;SHT31;52423;43.512;5.220;2024-01-07T12:36:51;8.75;61.01
65707;SHT31;52423;43.512;5.220;2024-01-07T12:39:17;8.86;60.01
65707;SHT31;52423;43.512;5.220;2024-01-07T12:41:43;8.82;60.48
65707;SHT31;52423;43.512;5.220;2024-01-07T12:44:09;8.80;59.93
65707;SHT31;52423;43.512;5.220;2024-01-07T12:46:35;8.72;60.57
65707;SHT31;52423;43.512;5.220;2024-01-07T12:49:00;8.69;59.92
65707;SHT31;52423;43.512;5.220;2024-01-07T12:51:25;8.66;60.85
65707;SHT31;52423;43.512;5.220;2024-01-07T12:53:51;8.52;60.33
65707;SHT31;52423;43.512;5.220;2024-01-07T12:56:16;8.31;61.09
65707;SHT31;52423;43.512;5.220;2024-01-07T12:58:42;8.34;61.20
65707;SHT31;52423;43.512;5.220;2024-01-07T13:01:08;8.32;61.51
65707;SHT31;52423;43.512;5.220;2024-01-07T13:03:33;8.25;61.00
65707;SHT31;52423;43.512;5.220;2024-01-07T13:05:59;8.17;61.20
65707;SHT31;52423;43.512;5.220;2024-01-07T13:08:24;8.12;61.18
65707;SHT31;52423;43.512;5.220;2024-01-07T13:10:53;8.07;61.48
65707;SHT31;52423;43.512;5.220;2024-01-07T13:13:19;8.05;62.35
65707;SHT31;52423;43.512;5.220;2024-01-07T13:15:44;8.02;61.81
65707;SHT31;52423;43.512;5.220;2024-01-07T13:18:10;7.87;62.47
65707;SHT31;52423;43.512;5.220;2024-01-07T13:20:37;7.79;63.25
65707;SHT31;52423;43.512;5.220;2024-01-07T13:23:04;7.80;63.06
65707;SHT31;52423;43.512;5.220;2024-01-07T13:25:30;7.83;63.02
65707;SHT31;52423;43.512;5.220;2024-01-07T13:27:55;7.84;62.67
65707;SHT31;52423;43.512;5.220;2024-01-07T13:30:21;7.87;62.84
65707;SHT31;52423;43.512;5.220;2024-01-07T13:32:46;7.90;62.55
65707;SHT31;52423;43.512;5.220;2024-01-07T13:35:11;7.95;62.46
65707;SHT31;52423;43.512;5.220;2024-01-07T13:37:38;8.04;62.52
65707;SHT31;52423;43.512;5.220;2024-01-07T13:40:07;8.01;62.08
65707;SHT31;52423;43.512;5.220;2024-01-07T13:42:35;7.95;62.10
65707;SHT31;52423;43.512;5.220;2024-01-07T13:45:00;7.93;62.50
65707;SHT31;52423;43.512;5.220;2024-01-07T13:47:26;7.91;63.36
65707;SHT31;52423;43.512;5.220;2024-01-07T13:49:51;7.89;62.35
65707;SHT31;52423;43.512;5.220;2024-01-07T13:52:17;7.80;62.95
65707;SHT31;52423;43.512;5.220;2024-01-07T13:54:42;7.76;62.67
65707;SHT31;52423;43.512;5.220;2024-01-07T13:57:11;7.71;62.19
65707;SHT31;52423;43.512;5.220;2024-01-07T13:59:38;7.63;62.37
65707;SHT31;52423;43.512;5.220;2024-01-07T14:02:05;7.53;62.96
65707;SHT31;52423;43.512;5.220;2024-01-07T14:04:30;7.46;62.97
65707;SHT31;52423;43.512;5.220;2024-01-07T14:06:57;7.40;62.91
65707;SHT31;52423;43.512;5.220;2024-01-07T14:09:23;7.42;63.44
65707;SHT31;52423;43.512;5.220;2024-01-07T14:11:48;7.40;63.03
65707;SHT31;52423;43.512;5.220;2024-01-07T14:14:13;7.38;63.58
65707;SHT31;52423;43.512;5.220;2024-01-07T14:16:39;7.32;63.29
65707;SHT31;52423;43.512;5.220;2024-01-07T14:19:05;7.29;63.85
65707;SHT31;52423;43.512;5.220;2024-01-07T14:21:31;7.26;64.41
65707;SHT31;52423;43.512;5.220;2024-01-07T14:23:56;7.29;63.71
65707;SHT31;52423;43.512;5.220;2024-01-07T14:26:22;7.32;63.67
65707;SHT31;52423;43.512;5.220;2024-01-07T14:28:49;7.30;64.28
65707;SHT31;52423;43.512;5.220;2024-01-07T14:31:16;7.33;64.28
65707;SHT31;52423;43.512;5.220;2024-01-07T14:33:42;7.29;64.07
65707;SHT31;52423;43.512;5.220;2024-01-07T14:36:07;7.29;64.28
65707;SHT31;52423;43.512;5.220;2024-01-07T14:38:34;7.28;63.97
65707;SHT31;52423;43.512;5.220;2024-01-07T14:40:59;7.26;63.88
65707;SHT31;52423;43.512;5.220;2024-01-07T14:43:25;7.21;64.25
65707;SHT31;52423;43.512;5.220;2024-01-07T14:45:50;7.21;64.38
65707;SHT31;52423;43.512;5.220;2024-01-07T14:48:16;7.18;64.40
65707;SHT31;52423;43.512;5.220;2024-01-07T14:50:41;7.19;64.69
65707;SHT31;52423;43.512;5.220;2024-01-07T14:53:09;7.22;64.42
65707;SHT31;52423;43.512;5.220;2024-01-07T14:55:35;7.19;64.36
65707;SHT31;52423;43.512;5.220;2024-01-07T14:58:00;7.18;64.39
65707;SHT31;52423;43.512;5.220;2024-01-07T15:00:26;7.15;64.36
65707;SHT31;52423;43.512;5.220;2024-01-07T15:02:51;7.14;64.37
65707;SHT31;52423;43.512;5.220;2024-01-07T15:05:17;7.14;64.11
65707;SHT31;52423;43.512;5.220;2024-01-07T15:07:42;7.09;64.46
65707;SHT31;52423;43.512;5.220;2024-01-07T15:10:09;7.09;64.41
65707;SHT31;52423;43.512;5.220;2024-01-07T15:12:34;7.08;64.58
65707;SHT31;52423;43.512;5.220;2024-01-07T15:15:03;7.07;64.83
65707;SHT31;52423;43.512;5.220;2024-01-07T15:17:31;7.01;64.58
65707;SHT31;52423;43.512;5.220;2024-01-07T15:19:56;6.95;64.54
65707;SHT31;52423;43.512;5.220;2024-01-07T15:22:22;6.91;65.10
65707;SHT31;52423;43.512;5.220;2024-01-07T15:24:47;6.88;65.49
65707;SHT31;52423;43.512;5.220;2024-01-07T15:27:13;6.92;64.90
65707;SHT31;52423;43.512;5.220;2024-01-07T15:29:38;6.90;64.96
65707;SHT31;52423;43.512;5.220;2024-01-07T15:32:04;6.90;65.15
65707;SHT31;52423;43.512;5.220;2024-01-07T15:34:29;6.84;65.07
65707;SHT31;52423;43.512;5.220;2024-01-07T15:36:55;6.84;65.14
65707;SHT31;52423;43.512;5.220;2024-01-07T15:39:20;6.85;65.17